sensor_id;sensor_type;location;lat;lon;timestamp;temperature;humidity
24682;DHT22;12802;53.390;-2.328;2023-03-16T00:01:17;7.50;99.90
24682;DHT22;12802;53.390;-2.328;2023-03-16T00:03:43;7.50;99.90
24682;DHT22;12802;53.390;-2.328;2023-03-16T00:06:09;7.60;99.90
24682;DHT22;12802;53.390;-2.328;2023-03-16T00:08:35;7.60;99.90
24682;DHT22;12802;53.390;-2.328;2023-03-16T00:11:01;7.70;99.90
24682;DHT22;12802;53.390;-2.328;2023-03-16T00:13:28;7.60;99.90
24682;DHT22;12802;53.390;-2.328;2023-03-16T00:15:57;7.70;99.90
24682;DHT22;12802;53.390;-2.328;2023-03-16T00:18:25;7.70;99.90
24682;DHT22;12802;53.390;-2.328;2023-03-16T00:20:57;7.70;99.90
24682;DHT22;12802;53.390;-2.328;2023-03-16T00:23:24;7.80;99.90
24682;DHT22;12802;53.390;-2.328;2023-03-16T00:25:58;7.80;99.90
24682;DHT22;12802;53.390;-2.328;2023-03-16T00:28:25;7.80;99.90
24682;DHT22;12802;53.390;-2.328;2023-03-16T00:30:52;7.80;99.90
24682;DHT22;12802;53.390;-2.328;2023-03-16T00:33:23;7.90;99.90
24682;DHT22;12802;53.390;-2.328;2023-03-16T00:35:49;7.90;99.90
24682;DHT22;12802;53.390;-2.328;2023-03-16T00:38:19;7.90;99.90
24682;DHT22;12802;53.390;-2.328;2023-03-16T00:40:46;7.90;99.90
24682;DHT22;12802;53.390;-2.328;2023-03-16T00:43:12;7.90;99.90
24682;DHT22;12802;53.390;-2.328;2023-03-16T00:45:43;8.00;99.90
24682;DHT22;12802;53.390;-2.328;2023-03-16T00:48:09;8.00;99.90
24682;DHT22;12802;53.390;-2.328;2023-03-16T00:50:36;8.00;99.90
24682;DHT22;12802;53.390;-2.328;2023-03-16T00:53:02;8.00;99.90
24682;DHT22;12802;53.390;-2.328;2023-03-16T00:55:28;8.10;99.90
24682;DHT22;12802;53.390;-2.328;2023-03-16T00:57:54;8.10;99.90
24682;DHT22;12802;53.390;-2.328;2023-03-16T01:00:20;8.10;99.90
24682;DHT22;12802;53.390;-2.328;2023-03-16T01:02:46;8.10;99.90
24682;DHT22;12802;53.390;-2.328;2023-03-16T01:05:13;8.20;99.90
24682;DHT22;12802;53.390;-2.328;2023-03-16T01:07:40;8.30;99.90
24682;DHT22;12802;53.390;-2.328;2023-03-16T01:10:08;8.30;99.90
24682;DHT22;12802;53.390;-2.328;2023-03-16T01:12:34;8.40;99.90
24682;DHT22;12802;53.390;-2.328;2023-03-16T01:15:00;8.40;99.90
24682;DHT22;12802;53.390;-2.328;2023-03-16T01:17:26;8.40;99.90
24682;DHT22;12802;53.390;-2.328;2023-03-16T01:19:52;8.40;99.90
24682;DHT22;12802;53.390;-2.328;2023-03-16T01:22:19;8.40;99.90
24682;DHT22;12802;53.390;-2.328;2023-03-16T01:24:44;8.40;99.90
24682;DHT22;12802;53.390;-2.328;2023-03-16T01:27:11;8.50;99.90
24682;DHT22;12802;53.390;-2.328;2023-03-16T01:29:38;8.50;99.90
24682;DHT22;12802;53.390;-2.328;2023-03-16T01:32:05;8.50;99.90
24682;DHT22;12802;53.390;-2.328;2023-03-16T01:34:32;8.50;99.90
24682;DHT22;12802;53.390;-2.328;2023-03-16T01:36:59;8.50;99.90
24682;DHT22;12802;53.390;-2.328;2023-03-16T01:39:48;8.60;99.90
24682;DHT22;12802;53.390;-2.328;2023-03-16T01:42:14;8.60;99.90
24682;DHT22;12802;53.390;-2.328;2023-03-16T01:44:58;8.60;99.90
24682;DHT22;12802;53.390;-2.328;2023-03-16T01:47:31;8.70;99.90
24682;DHT22;12802;53.390;-2.328;2023-03-16T01:50:04;8.60;99.90
24682;DHT22;12802;53.390;-2.328;2023-03-16T01:52:35;8.70;99.90
24682;DHT22;12802;53.390;-2.328;2023-03-16T01:55:07;8.70;99.90
24682;DHT22;12802;53.390;-2.328;2023-03-16T01:57:35;8.70;99.90
24682;DHT22;12802;53.390;-2.328;2023-03-16T02:02:52;8.80;99.90
24682;DHT22;12802;53.390;-2.328;2023-03-16T02:05:44;8.80;99.90
24682;DHT22;12802;53.390;-2.328;2023-03-16T02:08:14;8.90;99.90
24682;DHT22;12802;53.390;-2.328;2023-03-16T02:10:41;8.90;99.90
24682;DHT22;12802;53.390;-2.328;2023-03-16T02:13:07;8.90;99.90
24682;DHT22;12802;53.390;-2.328;2023-03-16T02:15:33;8.90;99.90
24682;DHT22;12802;53.390;-2.328;2023-03-16T02:18:00;8.90;99.90
24682;DHT22;12802;53.390;-2.328;2023-03-16T02:23:14;8.90;99.90
24682;DHT22;12802;53.390;-2.328;2023-03-16T02:28:37;8.80;99.90
24682;DHT22;12802;53.390;-2.328;2023-03-16T02:31:09;8.90;99.90
24682;DHT22;12802;53.390;-2.328;2023-03-16T02:33:37;8.90;99.90
24682;DHT22;12802;53.390;-2.328;2023-03-16T02:36:05;8.90;99.90
24682;DHT22;12802;53.390;-2.328;2023-03-16T02:38:31;8.90;99.90
24682;DHT22;12802;53.390;-2.328;2023-03-16T02:41:13;8.90;99.90
24682;DHT22;12802;53.390;-2.328;2023-03-16T02:43:46;8.90;99.90
24682;DHT22;12802;53.390;-2.328;2023-03-16T02:46:25;8.90;99.90
24682;DHT22;12802;53.390;-2.328;2023-03-16T02:49:12;8.90;99.90
24682;DHT22;12802;53.390;-2.328;2023-03-16T02:51:42;8.90;99.90
24682;DHT22;12802;53.390;-2.328;2023-03-16T02:54:09;8.90;99.90
24682;DHT22;12802;53.390;-2.328;2023-03-16T02:56:34;8.90;99.90
24682;DHT22;12802;53.390;-2.328;2023-03-16T02:59:00;8.90;99.90
24682;DHT22;12802;53.390;-2.328;2023-03-16T03:01:26;9.00;99.90
24682;DHT22;12802;53.390;-2.328;2023-03-16T03:03:53;9.00;99.90
24682;DHT22;12802;53.390;-2.328;2023-03-16T03:06:19;9.00;99.90
24682;DHT22;12802;53.390;-2.328;2023-03-16T03:08:45;9.00;99.90
24682;DHT22;12802;53.390;-2.328;2023-03-16T03:11:14;9.00;99.90
24682;DHT22;12802;53.390;-2.328;2023-03-16T03:13:40;9.00;99.90
24682;DHT22;12802;53.390;-2.328;2023-03-16T03:16:13;9.00;99.90
24682;DHT22;12802;53.390;-2.328;2023-03-16T03:18:39;9.00;99.90
24682;DHT22;12802;53.390;-2.328;2023-03-16T03:21:05;9.00;99.90
24682;DHT22;12802;53.390;-2.328;2023-03-16T03:23:32;9.00;99.90
24682;DHT22;12802;53.390;-2.328;2023-03-16T03:26:00;9.00;99.90
24682;DHT22;12802;53.390;-2.328;2023-03-16T03:28:28;9.00;99.90
24682;DHT22;12802;53.390;-2.328;2023-03-16T03:30:54;9.00;99.90
24682;DHT22;12802;53.390;-2.328;2023-03-16T03:33:20;9.00;99.90
24682;DHT22;12802;53.390;-2.328;2023-03-16T03:35:52;9.00;99.90
24682;DHT22;12802;53.390;-2.328;2023-03-16T03:38:18;9.00;99.90
24682;DHT22;12802;53.390;-2.328;2023-03-16T03:40:44;9.00;99.90
24682;DHT22;12802;53.390;-2.328;2023-03-16T03:43:11;9.00;99.90
24682;DHT22;12802;53.390;-2.328;2023-03-16T03:45:40;9.00;99.90
24682;DHT22;12802;53.390;-2.328;2023-03-16T03:48:06;9.10;99.90
24682;DHT22;12802;53.390;-2.328;2023-03-16T03:50:32;9.10;99.90
24682;DHT22;12802;53.390;-2.328;2023-03-16T03:53:18;9.10;99.90
24682;DHT22;12802;53.390;-2.328;2023-03-16T03:56:03;9.10;99.90
24682;DHT22;12802;53.390;-2.328;2023-03-16T03:58:29;9.10;99.90
24682;DHT22;12802;53.390;-2.328;2023-03-16T04:00:55;9.10;99.90
24682;DHT22;12802;53.390;-2.328;2023-03-16T04:03:21;9.10;99.90
24682;DHT22;12802;53.390;-2.328;2023-03-16T04:05:46;9.10;99.90
24682;DHT22;12802;53.390;-2.328;2023-03-16T04:08:12;9.10;99.90
24682;DHT22;12802;53.390;-2.328;2023-03-16T04:10:38;9.10;99.90
24682;DHT22;12802;53.390;-2.328;2023-03-16T04:13:04;9.10;99.90
24682;DHT22;12802;53.390;-2.328;2023-03-16T04:15:32;9.20;99.90
24682;DHT22;12802;53.390;-2.328;2023-03-16T04:18:07;9.20;99.90
24682;DHT22;12802;53.390;-2.328;2023-03-16T04:20:33;9.10;99.90
24682;DHT22;12802;53.390;-2.328;2023-03-16T04:22:59;9.20;99.90
24682;DHT22;12802;53.390;-2.328;2023-03-16T04:25:25;9.20;99.90
24682;DHT22;12802;53.390;-2.328;2023-03-16T04:27:52;9.20;99.90
24682;DHT22;12802;53.390;-2.328;2023-03-16T04:30:19;9.20;99.90
24682;DHT22;12802;53.390;-2.328;2023-03-16T04:32:50;9.20;99.90
24682;DHT22;12802;53.390;-2.328;2023-03-16T04:35:18;9.20;99.90
24682;DHT22;12802;53.390;-2.328;2023-03-16T04:37:51;9.20;99.90
24682;DHT22;12802;53.390;-2.328;2023-03-16T04:40:20;9.20;99.90
24682;DHT22;12802;53.390;-2.328;2023-03-16T04:42:52;9.20;99.90
24682;DHT22;12802;53.390;-2.328;2023-03-16T04:45:19;9.20;99.90
24682;DHT22;12802;53.390;-2.328;2023-03-16T04:47:47;9.20;99.90
24682;DHT22;12802;53.390;-2.328;2023-03-16T04:50:14;9.30;99.90
24682;DHT22;12802;53.390;-2.328;2023-03-16T04:52:42;9.30;99.90
24682;DHT22;12802;53.390;-2.328;2023-03-16T04:55:08;9.30;99.90
24682;DHT22;12802;53.390;-2.328;2023-03-16T04:57:35;9.30;99.90
24682;DHT22;12802;53.390;-2.328;2023-03-16T05:00:03;9.30;99.90
24682;DHT22;12802;53.390;-2.328;2023-03-16T05:02:50;9.30;99.90
24682;DHT22;12802;53.390;-2.328;2023-03-16T05:05:20;9.30;99.90
24682;DHT22;12802;53.390;-2.328;2023-03-16T05:07:46;9.30;99.90
24682;DHT22;12802;53.390;-2.328;2023-03-16T05:10:15;9.40;99.90
24682;DHT22;12802;53.390;-2.328;2023-03-16T05:12:41;9.40;99.90
24682;DHT22;12802;53.390;-2.328;2023-03-16T05:15:08;9.40;99.90
24682;DHT22;12802;53.390;-2.328;2023-03-16T05:17:41;9.40;99.90
24682;DHT22;12802;53.390;-2.328;2023-03-16T05:20:10;9.40;99.90
24682;DHT22;12802;53.390;-2.328;2023-03-16T05:22:41;9.40;99.90
24682;DHT22;12802;53.390;-2.328;2023-03-16T05:25:19;9.50;99.90
24682;DHT22;12802;53.390;-2.328;2023-03-16T05:27:51;9.40;99.90
24682;DHT22;12802;53.390;-2.328;2023-03-16T05:30:26;9.50;99.90
24682;DHT22;12802;53.390;-2.328;2023-03-16T05:32:53;9.50;99.90
24682;DHT22;12802;53.390;-2.328;2023-03-16T05:35:23;9.50;99.90
24682;DHT22;12802;53.390;-2.328;2023-03-16T05:37:50;9.50;99.90
24682;DHT22;12802;53.390;-2.328;2023-03-16T05:40:18;9.50;99.90
24682;DHT22;12802;53.390;-2.328;2023-03-16T05:42:55;9.50;99.90
24682;DHT22;12802;53.390;-2.328;2023-03-16T05:45:23;9.50;99.90
24682;DHT22;12802;53.390;-2.328;2023-03-16T05:48:05;9.50;99.90
24682;DHT22;12802;53.390;-2.328;2023-03-16T05:50:34;9.60;99.90
24682;DHT22;12802;53.390;-2.328;2023-03-16T05:53:00;9.60;99.90
24682;DHT22;12802;53.390;-2.328;2023-03-16T05:55:26;9.50;99.90
24682;DHT22;12802;53.390;-2.328;2023-03-16T05:57:57;9.50;99.90
24682;DHT22;12802;53.390;-2.328;2023-03-16T06:00:24;9.50;99.90
24682;DHT22;12802;53.390;-2.328;2023-03-16T06:03:00;9.50;99.90
24682;DHT22;12802;53.390;-2.328;2023-03-16T06:05:29;9.50;99.90
24682;DHT22;12802;53.390;-2.328;2023-03-16T06:07:57;9.50;99.90
24682;DHT22;12802;53.390;-2.328;2023-03-16T06:10:24;9.50;99.90
24682;DHT22;12802;53.390;-2.328;2023-03-16T06:12:51;9.50;99.90
24682;DHT22;12802;53.390;-2.328;2023-03-16T06:15:19;9.50;99.90
24682;DHT22;12802;53.390;-2.328;2023-03-16T06:17:45;9.50;99.90
24682;DHT22;12802;53.390;-2.328;2023-03-16T06:20:12;9.50;99.90
24682;DHT22;12802;53.390;-2.328;2023-03-16T06:22:40;9.50;99.90
24682;DHT22;12802;53.390;-2.328;2023-03-16T06:25:07;9.50;99.90
24682;DHT22;12802;53.390;-2.328;2023-03-16T06:27:35;9.50;99.90
24682;DHT22;12802;53.390;-2.328;2023-03-16T06:30:11;9.50;99.90
24682;DHT22;12802;53.390;-2.328;2023-03-16T06:32:37;9.50;99.90
24682;DHT22;12802;53.390;-2.328;2023-03-16T06:35:04;9.50;99.90
24682;DHT22;12802;53.390;-2.328;2023-03-16T06:37:31;9.60;99.90
24682;DHT22;12802;53.390;-2.328;2023-03-16T06:40:00;9.60;99.90
24682;DHT22;12802;53.390;-2.328;2023-03-16T06:42:26;9.60;99.90
24682;DHT22;12802;53.390;-2.328;2023-03-16T06:44:52;9.60;99.90
24682;DHT22;12802;53.390;-2.328;2023-03-16T06:47:19;9.60;99.90
24682;DHT22;12802;53.390;-2.328;2023-03-16T06:49:44;9.60;99.90
24682;DHT22;12802;53.390;-2.328;2023-03-16T06:52:18;9.70;99.90
24682;DHT22;12802;53.390;-2.328;2023-03-16T06:54:44;9.70;99.90
24682;DHT22;12802;53.390;-2.328;2023-03-16T06:57:11;9.70;99.90
24682;DHT22;12802;53.390;-2.328;2023-03-16T06:59:36;9.70;99.90
24682;DHT22;12802;53.390;-2.328;2023-03-16T07:02:02;9.70;99.90
24682;DHT22;12802;53.390;-2.328;2023-03-16T07:04:28;9.70;99.90
24682;DHT22;12802;53.390;-2.328;2023-03-16T07:06:54;9.70;99.90
24682;DHT22;12802;53.390;-2.328;2023-03-16T07:09:20;9.70;99.90
24682;DHT22;12802;53.390;-2.328;2023-03-16T07:11:46;9.70;99.90
24682;DHT22;12802;53.390;-2.328;2023-03-16T07:14:12;9.80;99.90
24682;DHT22;12802;53.390;-2.328;2023-03-16T07:16:38;9.80;99.90
24682;DHT22;12802;53.390;-2.328;2023-03-16T07:19:07;9.80;99.90
24682;DHT22;12802;53.390;-2.328;2023-03-16T07:21:33;9.80;99.90
24682;DHT22;12802;53.390;-2.328;2023-03-16T07:24:07;9.80;99.90
24682;DHT22;12802;53.390;-2.328;2023-03-16T07:26:36;9.80;99.90
24682;DHT22;12802;53.390;-2.328;2023-03-16T07:29:02;9.80;99.90
24682;DHT22;12802;53.390;-2.328;2023-03-16T07:31:32;9.80;99.90
24682;DHT22;12802;53.390;-2.328;2023-03-16T07:34:00;9.80;99.90
24682;DHT22;12802;53.390;-2.328;2023-03-16T07:36:36;9.80;99.90
24682;DHT22;12802;53.390;-2.328;2023-03-16T07:39:03;9.80;99.90
24682;DHT22;12802;53.390;-2.328;2023-03-16T07:41:29;9.90;99.90
24682;DHT22;12802;53.390;-2.328;2023-03-16T07:44:12;9.90;99.90
24682;DHT22;12802;53.390;-2.328;2023-03-16T07:46:38;9.90;99.90
24682;DHT22;12802;53.390;-2.328;2023-03-16T07:49:04;9.90;99.90
24682;DHT22;12802;53.390;-2.328;2023-03-16T07:51:31;9.90;99.90
24682;DHT22;12802;53.390;-2.328;2023-03-16T07:53:57;9.90;99.90
24682;DHT22;12802;53.390;-2.328;2023-03-16T07:56:26;10.00;99.90
24682;DHT22;12802;53.390;-2.328;2023-03-16T07:58:56;10.00;99.90
24682;DHT22;12802;53.390;-2.328;2023-03-16T08:01:22;10.00;99.90
24682;DHT22;12802;53.390;-2.328;2023-03-16T08:03:48;10.00;99.90
24682;DHT22;12802;53.390;-2.328;2023-03-16T08:06:14;10.00;99.90
24682;DHT22;12802;53.390;-2.328;2023-03-16T08:08:40;10.00;99.90
24682;DHT22;12802;53.390;-2.328;2023-03-16T08:11:10;10.00;99.90
24682;DHT22;12802;53.390;-2.328;2023-03-16T08:13:51;10.00;99.90
24682;DHT22;12802;53.390;-2.328;2023-03-16T08:16:23;10.00;99.90
24682;DHT22;12802;53.390;-2.328;2023-03-16T08:18:49;10.00;99.90
24682;DHT22;12802;53.390;-2.328;2023-03-16T08:21:18;10.00;99.90
24682;DHT22;12802;53.390;-2.328;2023-03-16T08:23:45;10.00;99.90
24682;DHT22;12802;53.390;-2.328;2023-03-16T08:26:19;10.00;99.90
24682;DHT22;12802;53.390;-2.328;2023-03-16T08:28:47;10.00;99.90
24682;DHT22;12802;53.390;-2.328;2023-03-16T08:31:17;10.00;99.90
24682;DHT22;12802;53.390;-2.328;2023-03-16T08:34:03;10.00;99.90
24682;DHT22;12802;53.390;-2.328;2023-03-16T08:36:30;10.10;99.90
24682;DHT22;12802;53.390;-2.328;2023-03-16T08:38:57;10.10;99.90
24682;DHT22;12802;53.390;-2.328;2023-03-16T08:41:24;10.10;99.90
24682;DHT22;12802;53.390;-2.328;2023-03-16T08:43:51;10.10;99.90
24682;DHT22;12802;53.390;-2.328;2023-03-16T08:46:17;10.10;99.90
24682;DHT22;12802;53.390;-2.328;2023-03-16T08:48:52;10.10;99.90
24682;DHT22;12802;53.390;-2.328;2023-03-16T08:51:22;10.20;99.90
24682;DHT22;12802;53.390;-2.328;2023-03-16T08:53:47;10.20;99.90
24682;DHT22;12802;53.390;-2.328;2023-03-16T08:56:13;10.20;99.90
24682;DHT22;12802;53.390;-2.328;2023-03-16T08:58:40;10.10;99.90
24682;DHT22;12802;53.390;-2.328;2023-03-16T09:01:11;10.10;99.90
24682;DHT22;12802;53.390;-2.328;2023-03-16T09:03:37;10.20;99.90
24682;DHT22;12802;53.390;-2.328;2023-03-16T09:06:08;10.20;99.90
24682;DHT22;12802;53.390;-2.328;2023-03-16T09:08:34;10.20;99.90
24682;DHT22;12802;53.390;-2.328;2023-03-16T09:11:08;10.20;99.90
24682;DHT22;12802;53.390;-2.328;2023-03-16T09:13:35;10.20;99.90
24682;DHT22;12802;53.390;-2.328;2023-03-16T09:16:04;10.30;99.90
24682;DHT22;12802;53.390;-2.328;2023-03-16T09:18:31;10.20;99.90
24682;DHT22;12802;53.390;-2.328;2023-03-16T09:21:02;10.20;99.90
24682;DHT22;12802;53.390;-2.328;2023-03-16T09:23:29;10.20;99.90
24682;DHT22;12802;53.390;-2.328;2023-03-16T09:26:02;10.30;99.90
24682;DHT22;12802;53.390;-2.328;2023-03-16T09:28:30;10.30;99.90
24682;DHT22;12802;53.390;-2.328;2023-03-16T09:30:57;10.40;99.90
24682;DHT22;12802;53.390;-2.328;2023-03-16T09:33:24;10.40;99.90
24682;DHT22;12802;53.390;-2.328;2023-03-16T09:35:50;10.50;99.90
24682;DHT22;12802;53.390;-2.328;2023-03-16T09:38:18;10.50;99.90
24682;DHT22;12802;53.390;-2.328;2023-03-16T09:40:45;10.60;99.90
24682;DHT22;12802;53.390;-2.328;2023-03-16T09:46:27;10.50;99.90
24682;DHT22;12802;53.390;-2.328;2023-03-16T09:48:56;10.50;99.90
24682;DHT22;12802;53.390;-2.328;2023-03-16T09:51:38;10.50;99.90
24682;DHT22;12802;53.390;-2.328;2023-03-16T09:54:20;10.50;99.90
24682;DHT22;12802;53.390;-2.328;2023-03-16T09:56:48;10.50;99.90
24682;DHT22;12802;53.390;-2.328;2023-03-16T09:59:16;10.50;99.90
24682;DHT22;12802;53.390;-2.328;2023-03-16T10:02:13;10.50;99.90
24682;DHT22;12802;53.390;-2.328;2023-03-16T10:05:04;10.50;99.90
24682;DHT22;12802;53.390;-2.328;2023-03-16T10:12:42;10.60;99.90
24682;DHT22;12802;53.390;-2.328;2023-03-16T10:15:16;10.60;99.90
24682;DHT22;12802;53.390;-2.328;2023-03-16T10:18:03;10.60;99.90
24682;DHT22;12802;53.390;-2.328;2023-03-16T10:20:33;10.70;99.90
24682;DHT22;12802;53.390;-2.328;2023-03-16T10:23:00;10.70;99.90
24682;DHT22;12802;53.390;-2.328;2023-03-16T10:25:45;10.70;99.90
24682;DHT22;12802;53.390;-2.328;2023-03-16T10:28:20;10.70;99.90
24682;DHT22;12802;53.390;-2.328;2023-03-16T10:30:47;10.70;99.90
24682;DHT22;12802;53.390;-2.328;2023-03-16T10:33:23;10.70;99.90
24682;DHT22;12802;53.390;-2.328;2023-03-16T10:36:04;10.80;99.90
24682;DHT22;12802;53.390;-2.328;2023-03-16T10:41:20;10.80;99.90
24682;DHT22;12802;53.390;-2.328;2023-03-16T10:43:53;10.80;99.90
24682;DHT22;12802;53.390;-2.328;2023-03-16T10:46:24;10.80;99.90
24682;DHT22;12802;53.390;-2.328;2023-03-16T10:48:55;10.80;99.90
24682;DHT22;12802;53.390;-2.328;2023-03-16T10:51:35;10.80;99.90
24682;DHT22;12802;53.390;-2.328;2023-03-16T10:56:47;10.80;99.90
24682;DHT22;12802;53.390;-2.328;2023-03-16T10:59:29;10.80;99.90
24682;DHT22;12802;53.390;-2.328;2023-03-16T11:01:56;10.70;99.90
24682;DHT22;12802;53.390;-2.328;2023-03-16T11:04:23;10.80;99.90
24682;DHT22;12802;53.390;-2.328;2023-03-16T11:06:53;10.80;99.90
24682;DHT22;12802;53.390;-2.328;2023-03-16T11:09:23;10.80;99.90
24682;DHT22;12802;53.390;-2.328;2023-03-16T11:11:50;10.80;99.90
24682;DHT22;12802;53.390;-2.328;2023-03-16T11:14:20;10.80;99.90
24682;DHT22;12802;53.390;-2.328;2023-03-16T11:17:11;10.80;99.90
24682;DHT22;12802;53.390;-2.328;2023-03-16T11:19:53;10.90;99.90
24682;DHT22;12802;53.390;-2.328;2023-03-16T11:22:25;10.90;99.90
24682;DHT22;12802;53.390;-2.328;2023-03-16T11:28:22;11.10;99.90
24682;DHT22;12802;53.390;-2.328;2023-03-16T11:30:40;11.10;99.90
24682;DHT22;12802;53.390;-2.328;2023-03-16T11:33:11;11.10;99.90
24682;DHT22;12802;53.390;-2.328;2023-03-16T11:35:46;11.20;99.90
24682;DHT22;12802;53.390;-2.328;2023-03-16T11:41:25;11.30;99.90
24682;DHT22;12802;53.390;-2.328;2023-03-16T11:44:03;11.30;99.90
24682;DHT22;12802;53.390;-2.328;2023-03-16T11:46:39;11.30;99.90
24682;DHT22;12802;53.390;-2.328;2023-03-16T11:57:01;11.50;99.90
24682;DHT22;12802;53.390;-2.328;2023-03-16T12:13:29;11.70;99.90
24682;DHT22;12802;53.390;-2.328;2023-03-16T12:16:20;11.70;99.90
24682;DHT22;12802;53.390;-2.328;2023-03-16T12:18:54;11.70;99.90
24682;DHT22;12802;53.390;-2.328;2023-03-16T12:21:43;11.80;99.90
24682;DHT22;12802;53.390;-2.328;2023-03-16T12:24:21;11.80;99.90
24682;DHT22;12802;53.390;-2.328;2023-03-16T12:26:49;11.80;99.90
24682;DHT22;12802;53.390;-2.328;2023-03-16T12:32:45;11.90;99.90
24682;DHT22;12802;53.390;-2.328;2023-03-16T12:38:24;12.10;99.90
24682;DHT22;12802;53.390;-2.328;2023-03-16T12:48:53;12.30;99.90
24682;DHT22;12802;53.390;-2.328;2023-03-16T12:51:30;12.30;99.90
24682;DHT22;12802;53.390;-2.328;2023-03-16T12:53:56;12.30;99.90
24682;DHT22;12802;53.390;-2.328;2023-03-16T12:56:29;12.30;99.90
24682;DHT22;12802;53.390;-2.328;2023-03-16T12:58:59;12.30;99.90
24682;DHT22;12802;53.390;-2.328;2023-03-16T13:01:28;12.20;99.90
24682;DHT22;12802;53.390;-2.328;2023-03-16T13:04:08;12.20;99.90
24682;DHT22;12802;53.390;-2.328;2023-03-16T13:06:36;12.10;99.90
24682;DHT22;12802;53.390;-2.328;2023-03-16T13:09:03;12.10;99.90
24682;DHT22;12802;53.390;-2.328;2023-03-16T13:11:59;12.10;99.90
24682;DHT22;12802;53.390;-2.328;2023-03-16T13:14:47;12.10;99.90
24682;DHT22;12802;53.390;-2.328;2023-03-16T13:19:41;12.20;99.90
24682;DHT22;12802;53.390;-2.328;2023-03-16T13:24:52;12.30;99.90
24682;DHT22;12802;53.390;-2.328;2023-03-16T13:27:32;12.20;99.90
24682;DHT22;12802;53.390;-2.328;2023-03-16T13:30:13;12.20;99.90
24682;DHT22;12802;53.390;-2.328;2023-03-16T13:32:39;12.30;99.90
24682;DHT22;12802;53.390;-2.328;2023-03-16T13:35:10;12.20;99.90
24682;DHT22;12802;53.390;-2.328;2023-03-16T13:37:39;12.20;99.90
24682;DHT22;12802;53.390;-2.328;2023-03-16T13:40:26;12.30;99.90
24682;DHT22;12802;53.390;-2.328;2023-03-16T13:42:53;12.20;99.90
24682;DHT22;12802;53.390;-2.328;2023-03-16T13:45:27;12.20;99.90
24682;DHT22;12802;53.390;-2.328;2023-03-16T13:47:55;12.20;99.90
24682;DHT22;12802;53.390;-2.328;2023-03-16T13:50:22;12.30;99.90
24682;DHT22;12802;53.390;-2.328;2023-03-16T13:53:29;12.30;99.90
24682;DHT22;12802;53.390;-2.328;2023-03-16T13:55:58;12.40;99.90
24682;DHT22;12802;53.390;-2.328;2023-03-16T13:58:32;12.30;99.90
24682;DHT22;12802;53.390;-2.328;2023-03-16T14:01:03;12.40;99.90
24682;DHT22;12802;53.390;-2.328;2023-03-16T14:03:35;12.40;99.90
24682;DHT22;12802;53.390;-2.328;2023-03-16T14:06:03;12.40;99.90
24682;DHT22;12802;53.390;-2.328;2023-03-16T14:08:29;12.40;99.90
24682;DHT22;12802;53.390;-2.328;2023-03-16T14:10:56;12.30;99.90
24682;DHT22;12802;53.390;-2.328;2023-03-16T14:15:48;12.20;99.90
24682;DHT22;12802;53.390;-2.328;2023-03-16T14:18:19;12.20;99.90
24682;DHT22;12802;53.390;-2.328;2023-03-16T14:20:52;12.30;99.90
24682;DHT22;12802;53.390;-2.328;2023-03-16T14:23:23;12.30;99.90
24682;DHT22;12802;53.390;-2.328;2023-03-16T14:25:51;12.30;99.90
24682;DHT22;12802;53.390;-2.328;2023-03-16T14:28:21;12.40;99.90
24682;DHT22;12802;53.390;-2.328;2023-03-16T14:30:53;12.40;99.90
24682;DHT22;12802;53.390;-2.328;2023-03-16T14:33:30;12.40;99.90
24682;DHT22;12802;53.390;-2.328;2023-03-16T14:35:58;12.40;99.90
24682;DHT22;12802;53.390;-2.328;2023-03-16T14:38:32;12.40;99.90
24682;DHT22;12802;53.390;-2.328;2023-03-16T14:41:20;12.30;99.90
24682;DHT22;12802;53.390;-2.328;2023-03-16T14:43:50;12.30;99.90
24682;DHT22;12802;53.390;-2.328;2023-03-16T14:46:27;12.30;99.90
24682;DHT22;12802;53.390;-2.328;2023-03-16T14:51:45;12.30;99.90
24682;DHT22;12802;53.390;-2.328;2023-03-16T14:54:13;12.10;99.90
24682;DHT22;12802;53.390;-2.328;2023-03-16T14:56:41;12.00;99.90
24682;DHT22;12802;53.390;-2.328;2023-03-16T14:59:10;12.00;99.90
24682;DHT22;12802;53.390;-2.328;2023-03-16T15:01:36;12.00;99.90
24682;DHT22;12802;53.390;-2.328;2023-03-16T15:04:03;11.90;99.90
24682;DHT22;12802;53.390;-2.328;2023-03-16T15:06:31;12.00;99.90
24682;DHT22;12802;53.390;-2.328;2023-03-16T15:08:57;11.90;99.90
24682;DHT22;12802;53.390;-2.328;2023-03-16T15:11:23;11.90;99.90
24682;DHT22;12802;53.390;-2.328;2023-03-16T15:13:50;11.80;99.90
24682;DHT22;12802;53.390;-2.328;2023-03-16T15:16:16;11.70;99.90
24682;DHT22;12802;53.390;-2.328;2023-03-16T15:18:42;11.60;99.90
24682;DHT22;12802;53.390;-2.328;2023-03-16T15:21:10;11.60;99.90
24682;DHT22;12802;53.390;-2.328;2023-03-16T15:23:40;11.50;99.90
24682;DHT22;12802;53.390;-2.328;2023-03-16T15:26:19;11.50;99.90
24682;DHT22;12802;53.390;-2.328;2023-03-16T15:28:45;11.40;99.90
24682;DHT22;12802;53.390;-2.328;2023-03-16T15:31:12;11.40;99.90
24682;DHT22;12802;53.390;-2.328;2023-03-16T15:33:41;11.40;99.90
24682;DHT22;12802;53.390;-2.328;2023-03-16T15:36:18;11.40;99.90
24682;DHT22;12802;53.390;-2.328;2023-03-16T15:38:49;11.40;99.90
24682;DHT22;12802;53.390;-2.328;2023-03-16T15:41:16;11.30;99.90
24682;DHT22;12802;53.390;-2.328;2023-03-16T15:43:43;11.30;99.90
24682;DHT22;12802;53.390;-2.328;2023-03-16T15:46:10;11.30;99.90
24682;DHT22;12802;53.390;-2.328;2023-03-16T15:48:37;11.30;99.90
24682;DHT22;12802;53.390;-2.328;2023-03-16T15:51:35;11.30;99.90
24682;DHT22;12802;53.390;-2.328;2023-03-16T15:54:02;11.30;99.90
24682;DHT22;12802;53.390;-2.328;2023-03-16T15:56:32;11.30;99.90
24682;DHT22;12802;53.390;-2.328;2023-03-16T15:59:05;11.20;99.90
24682;DHT22;12802;53.390;-2.328;2023-03-16T16:01:36;11.20;99.90
24682;DHT22;12802;53.390;-2.328;2023-03-16T16:04:15;11.10;99.90
24682;DHT22;12802;53.390;-2.328;2023-03-16T16:06:42;11.00;99.90
24682;DHT22;12802;53.390;-2.328;2023-03-16T16:09:08;10.90;99.90
24682;DHT22;12802;53.390;-2.328;2023-03-16T16:11:35;10.80;99.90
24682;DHT22;12802;53.390;-2.328;2023-03-16T16:14:01;10.80;99.90
24682;DHT22;12802;53.390;-2.328;2023-03-16T16:16:28;10.80;99.90
24682;DHT22;12802;53.390;-2.328;2023-03-16T16:18:55;10.80;99.90
24682;DHT22;12802;53.390;-2.328;2023-03-16T16:21:26;10.80;99.90
24682;DHT22;12802;53.390;-2.328;2023-03-16T16:23:53;10.70;99.90
24682;DHT22;12802;53.390;-2.328;2023-03-16T16:26:26;10.80;99.90
24682;DHT22;12802;53.390;-2.328;2023-03-16T16:28:53;10.80;99.90
24682;DHT22;12802;53.390;-2.328;2023-03-16T16:31:21;10.80;99.90
24682;DHT22;12802;53.390;-2.328;2023-03-16T16:33:47;10.70;99.90
24682;DHT22;12802;53.390;-2.328;2023-03-16T16:36:15;10.70;99.90
24682;DHT22;12802;53.390;-2.328;2023-03-16T16:38:44;10.70;99.90
24682;DHT22;12802;53.390;-2.328;2023-03-16T16:41:26;10.70;99.90
24682;DHT22;12802;53.390;-2.328;2023-03-16T16:43:54;10.70;99.90
24682;DHT22;12802;53.390;-2.328;2023-03-16T16:46:24;10.60;99.90
24682;DHT22;12802;53.390;-2.328;2023-03-16T16:49:03;10.60;99.90
24682;DHT22;12802;53.390;-2.328;2023-03-16T16:51:30;10.60;99.90
24682;DHT22;12802;53.390;-2.328;2023-03-16T16:53:57;10.60;99.90
24682;DHT22;12802;53.390;-2.328;2023-03-16T16:56:28;10.60;99.90